Weather at Squamish Airport

Public forecast

Using degrees Celsius for public forecast. Weather courtesy of forecast.io.

Current aviation weather report (METAR) for Squamish Airport

Report is more than 6 hours old.

Retrieved 2010/04/03 06:00 UTC (11 years ago):

CYSE 030600Z 16006KT 1 1/2SM RA BR SCT005 OVC016 04/03 A2932 RMK SF3SC5 LAST OBS/END OF CONTRACT SLP929

Aviation forecast (TAF) for Squamish Airport

Forecast is more than 12 hours old.

Retrieved 2010/04/03 00:39 UTC (11 years ago):

TAF CYSE 030039Z 0301/0401 14008KT 5SM -RA BR SCT005 OVC025 TEMPO 0301/0303 14010G22KT 2SM -RA BR BKN005 FM030300 17005KT 11/2SM RA BR BKN005 OVC020 TEMPO 0303/0312 6SM -RA BR SCT005 OVC020 PROB30 0303/0312 3/4SM SHRA BKN004 FM031200 VRB02KT 6SM -SHRA BR FEW006 OVC030 TEMPO 0312/0320 2SM -SHRA BR BKN006 RMK NXT FCST BY 030700Z